Time;durP1;ratioP1;P1;durP2;ratioP2;P2;SDS_P1;SDS_P2;PMS_P1;PMS_P2;Temp;Humidity;BMP_temperature;BMP_pressure;BME280_temperature;BME280_humidity;BME280_pressure;Samples;Min_cycle;Max_cycle;Signal;HPM_P1;HPM_P2
2023/04/20 00:02:28;;;;;;;19.97;18.97;;;7.70;1.00;;;;;;2614571;54;20202;-69
2023/04/20 00:08:16;;;;;;;19.37;17.97;;;7.80;1.00;;;;;;2613761;54;20126;-70
2023/04/20 00:14:04;;;;;;;17.67;16.60;;;7.80;1.00;;;;;;2613202;54;20785;-70
2023/04/20 00:19:52;;;;;;;18.20;17.30;;;7.70;1.00;;;;;;2613332;54;20130;-69
2023/04/20 00:25:40;;;;;;;17.63;16.67;;;7.70;1.00;;;;;;2613987;54;20134;-70
2023/04/20 00:31:27;;;;;;;19.03;17.53;;;7.40;1.00;;;;;;2613564;54;20814;-70
2023/04/20 00:37:15;;;;;;;20.20;18.57;;;7.30;1.00;;;;;;2612311;54;20129;-70
2023/04/20 00:47:09;;;;;;;18.37;17.17;;;7.20;1.00;;;;;;2613986;39;20885;-69
2023/04/20 00:52:57;;;;;;;18.83;17.20;;;7.10;1.00;;;;;;2613606;54;20516;-69
2023/04/20 00:58:45;;;;;;;18.80;17.50;;;7.00;1.00;;;;;;2611622;54;23730;-71
2023/04/20 01:04:35;;;;;;;17.73;16.53;;;6.90;1.00;;;;;;2612299;54;20394;-69
2023/04/20 01:10:22;;;;;;;17.47;16.47;;;6.70;1.00;;;;;;2612300;54;20359;-70
2023/04/20 01:16:10;;;;;;;18.60;17.43;;;6.80;1.00;;;;;;2613363;46;20137;-70
2023/04/20 01:21:58;;;;;;;18.67;17.43;;;6.60;1.00;;;;;;2612696;46;20402;-70
2023/04/20 01:27:47;;;;;;;18.63;17.43;;;6.30;1.00;;;;;;2612258;54;20142;-70
2023/04/20 01:33:35;;;;;;;17.80;16.77;;;6.50;1.00;;;;;;2613338;39;21045;-70
2023/04/20 01:39:23;;;;;;;18.07;17.17;;;6.70;1.00;;;;;;2610975;54;20398;-69
2023/04/20 01:42:38;;;;;;;17.60;16.50;;;6.90;1.00;;;;;;2613419;54;20399;-70
2023/04/20 01:45:05;;;;;;;17.33;15.93;;;6.90;1.00;;;;;;2613267;54;20949;-70
2023/04/20 01:50:53;;;;;;;18.07;16.93;;;7.00;1.00;;;;;;2610958;54;20390;-70
2023/04/20 01:56:41;;;;;;;17.87;16.73;;;7.10;1.00;;;;;;2612734;54;20158;-69
2023/04/20 02:02:28;;;;;;;17.47;16.30;;;7.20;1.00;;;;;;2612559;54;20242;-70
2023/04/20 02:08:16;;;;;;;18.73;17.60;;;7.30;1.00;;;;;;2611955;54;20166;-69
2023/04/20 02:14:04;;;;;;;17.63;16.63;;;7.40;1.00;;;;;;2612275;54;20664;-69
2023/04/20 02:19:52;;;;;;;18.00;16.90;;;7.50;1.00;;;;;;2612464;39;20613;-69
2023/04/20 02:25:40;;;;;;;18.10;16.93;;;7.50;1.00;;;;;;2612367;54;20131;-70
2023/04/20 02:31:27;;;;;;;17.03;15.80;;;7.50;1.00;;;;;;2612747;54;20170;-73
2023/04/20 02:37:15;;;;;;;17.60;16.30;;;7.50;1.00;;;;;;2611842;54;20134;-73
2023/04/20 02:47:12;;;;;;;16.63;15.53;;;7.40;1.70;;;;;;2613909;54;20402;-73
2023/04/20 02:52:59;;;;;;;17.70;16.40;;;7.40;6.60;;;;;;2614111;54;20433;-72
2023/04/20 02:58:47;;;;;;;18.93;17.53;;;7.30;11.60;;;;;;2612203;54;20147;-70
2023/04/20 03:04:35;;;;;;;18.17;17.10;;;7.30;12.80;;;;;;2612394;54;20465;-69
2023/04/20 03:10:23;;;;;;;17.43;16.23;;;7.40;13.00;;;;;;2613714;54;20383;-70
2023/04/20 03:16:11;;;;;;;18.50;17.50;;;7.40;14.60;;;;;;2613990;54;20146;-69
2023/04/20 03:21:59;;;;;;;18.67;17.37;;;7.50;17.90;;;;;;2612782;54;20950;-69
2023/04/20 03:27:47;;;;;;;17.13;16.03;;;7.60;19.80;;;;;;2612806;54;20178;-70
2023/04/20 03:33:34;;;;;;;18.63;17.17;;;7.60;25.00;;;;;;2612542;54;20230;-69
2023/04/20 03:39:22;;;;;;;19.37;18.17;;;7.60;35.10;;;;;;2611473;54;20146;-70
2023/04/20 03:42:40;;;;;;;17.10;16.10;;;7.60;38.20;;;;;;2613321;39;20870;-70
2023/04/20 03:45:06;;;;;;;18.70;17.40;;;7.60;39.70;;;;;;2613365;54;20143;-70
2023/04/20 03:50:53;;;;;;;17.53;16.50;;;7.60;48.40;;;;;;2612894;54;20468;-69
2023/04/20 03:56:43;;;;;;;16.37;15.20;;;7.50;56.20;;;;;;2611867;54;20711;-70
2023/04/20 04:02:31;;;;;;;19.13;17.80;;;7.40;57.60;;;;;;2612899;54;20378;-70
2023/04/20 04:08:18;;;;;;;16.93;15.80;;;7.40;60.60;;;;;;2613209;54;20127;-69
2023/04/20 04:14:06;;;;;;;16.90;15.77;;;7.50;63.10;;;;;;2613747;39;20545;-70
2023/04/20 04:19:54;;;;;;;16.80;15.70;;;7.50;61.30;;;;;;2613323;54;20162;-70
2023/04/20 04:25:42;;;;;;;16.13;15.13;;;7.40;63.80;;;;;;2613714;39;22451;-70
2023/04/20 04:31:31;;;;;;;17.37;16.47;;;7.40;67.00;;;;;;2612930;54;20134;-70
2023/04/20 04:37:19;;;;;;;17.63;16.53;;;7.40;68.80;;;;;;2610594;54;20400;-70
2023/04/20 04:47:13;;;;;;;15.90;14.80;;;7.40;72.10;;;;;;2611140;54;20407;-70
2023/04/20 04:53:00;;;;;;;16.23;14.50;;;7.40;72.30;;;;;;2610031;54;20387;-71
2023/04/20 04:58:48;;;;;;;16.30;15.10;;;7.40;73.40;;;;;;2611972;39;20518;-70
2023/04/20 05:04:36;;;;;;;17.70;16.60;;;7.40;75.10;;;;;;2612892;54;20139;-70
2023/04/20 05:10:24;;;;;;;16.57;15.57;;;7.40;74.30;;;;;;2612665;54;20154;-71
2023/04/20 05:16:11;;;;;;;18.20;17.00;;;7.50;76.80;;;;;;2613351;54;20149;-70
2023/04/20 05:21:59;;;;;;;16.83;15.30;;;7.40;75.60;;;;;;2612146;54;20286;-69
2023/04/20 05:27:46;;;;;;;18.03;16.83;;;7.40;78.00;;;;;;2612884;54;20163;-70
2023/04/20 05:33:34;;;;;;;16.80;15.57;;;7.30;80.30;;;;;;2613341;54;20143;-74
2023/04/20 05:39:23;;;;;;;17.40;16.37;;;7.40;86.10;;;;;;2611849;31;20636;-69
2023/04/20 05:42:40;;;;;;;17.60;16.33;;;7.40;87.20;;;;;;2611276;39;20924;-71
2023/04/20 05:45:06;;;;;;;16.30;15.07;;;7.40;89.90;;;;;;2613203;54;20415;-70
2023/04/20 05:50:54;;;;;;;17.00;15.70;;;7.30;92.90;;;;;;2613195;54;20391;-69
2023/04/20 05:56:42;;;;;;;17.73;16.37;;;7.20;97.40;;;;;;2613072;54;20154;-70
2023/04/20 06:02:30;;;;;;;15.70;14.60;;;7.40;99.90;;;;;;2612485;54;20235;-69
2023/04/20 06:08:18;;;;;;;13.03;12.03;;;7.00;99.90;;;;;;2612540;31;20636;-70
2023/04/20 06:14:05;;;;;;;13.83;12.73;;;6.90;99.90;;;;;;2610368;54;20366;-69
2023/04/20 06:19:53;;;;;;;14.37;12.90;;;6.80;99.90;;;;;;2613424;54;20194;-69
2023/04/20 06:25:40;;;;;;;13.17;12.20;;;6.70;99.90;;;;;;2612495;39;20528;-69
2023/04/20 06:31:28;;;;;;;14.37;13.07;;;6.50;99.90;;;;;;2611248;54;20636;-69
2023/04/20 06:37:15;;;;;;;15.07;13.63;;;6.50;99.90;;;;;;2612448;54;20122;-69
2023/04/20 06:47:12;;;;;;;13.83;12.63;;;6.60;99.90;;;;;;2611807;54;21445;-70
2023/04/20 06:53:02;;;;;;;13.70;12.40;;;6.50;99.90;;;;;;2609267;54;20447;-68
2023/04/20 06:58:50;;;;;;;13.23;12.23;;;6.50;99.90;;;;;;2613302;54;20347;-70
2023/04/20 07:04:38;;;;;;;13.50;12.30;;;6.50;99.90;;;;;;2612239;54;20259;-69
2023/04/20 07:10:26;;;;;;;13.57;12.27;;;6.70;99.90;;;;;;2614327;54;20118;-69
2023/04/20 07:16:15;;;;;;;14.20;13.00;;;7.00;99.90;;;;;;2613077;54;20261;-69
2023/04/20 07:22:03;;;;;;;13.90;12.53;;;7.00;99.90;;;;;;2613446;54;20387;-69
2023/04/20 07:27:50;;;;;;;13.63;12.37;;;7.00;99.90;;;;;;2612995;54;20130;-68
2023/04/20 07:33:38;;;;;;;15.37;14.03;;;6.90;99.90;;;;;;2613446;54;20115;-69
2023/04/20 07:39:29;;;;;;;14.83;13.73;;;7.10;99.90;;;;;;2610816;54;20150;-69
2023/04/20 07:42:40;;;;;;;14.73;13.43;;;7.20;99.90;;;;;;2612265;54;20375;-70
2023/04/20 07:45:06;;;;;;;14.73;13.53;;;7.20;99.90;;;;;;2611454;54;20977;-69
2023/04/20 07:50:54;;;;;;;16.33;14.90;;;7.20;99.90;;;;;;2611263;54;20363;-68
2023/04/20 07:56:42;;;;;;;13.93;12.60;;;7.30;99.90;;;;;;2610806;54;20487;-69
2023/04/20 08:02:31;;;;;;;13.50;12.50;;;7.30;99.90;;;;;;2608153;54;20731;-69
2023/04/20 08:08:18;;;;;;;14.57;13.57;;;7.40;99.90;;;;;;2612123;54;20406;-69
2023/04/20 08:14:06;;;;;;;13.77;12.73;;;7.40;99.90;;;;;;2611079;54;20122;-70
2023/04/20 08:19:53;;;;;;;14.97;13.60;;;7.50;99.90;;;;;;2613274;54;20135;-69
2023/04/20 08:25:41;;;;;;;14.83;13.60;;;7.40;99.90;;;;;;2611325;54;20657;-70
2023/04/20 08:31:29;;;;;;;16.63;15.13;;;7.80;99.90;;;;;;2613628;39;20868;-69
2023/04/20 08:37:17;;;;;;;15.30;14.13;;;8.00;99.90;;;;;;2613331;54;20677;-69
2023/04/20 08:47:10;;;;;;;18.37;16.53;;;7.90;99.90;;;;;;2608962;54;20412;-69
2023/04/20 08:52:59;;;;;;;15.50;14.10;;;8.10;99.90;;;;;;2610935;54;20928;-69
2023/04/20 08:58:50;;;;;;;14.33;12.93;;;7.70;99.90;;;;;;2610842;54;20402;-68
2023/04/20 09:04:39;;;;;;;13.30;11.90;;;7.50;99.90;;;;;;2612330;54;20399;-68
2023/04/20 09:17:04;;;;;;;10.97;9.97;;;8.30;99.90;;;;;;2611934;54;20359;-68
2023/04/20 09:22:53;;;;;;;13.00;11.70;;;9.00;99.90;;;;;;2612264;39;21311;-68
2023/04/20 09:25:25;;;;;;;13.90;12.47;;;9.10;99.90;;;;;;2613243;54;20471;-68
2023/04/20 09:28:01;;;;;;;12.87;11.70;;;9.90;99.90;;;;;;2610967;39;20785;-69
2023/04/20 09:33:58;;;;;;;15.30;13.90;;;9.10;99.90;;;;;;2611299;54;20363;-69
2023/04/20 09:39:46;;;;;;;19.07;17.17;;;8.10;99.90;;;;;;2605301;54;20551;-69
2023/04/20 09:42:41;;;;;;;15.00;13.43;;;8.80;99.90;;;;;;2605866;54;20966;-69
2023/04/20 09:45:07;;;;;;;16.43;15.00;;;9.10;99.90;;;;;;2607273;54;20416;-69
2023/04/20 09:50:55;;;;;;;13.30;11.70;;;9.50;99.90;;;;;;2610685;54;20423;-69
2023/04/20 09:56:44;;;;;;;12.57;11.47;;;9.90;99.90;;;;;;2613270;54;20922;-68
2023/04/20 10:02:33;;;;;;;13.90;12.50;;;8.60;99.90;;;;;;2613667;54;20512;-69
2023/04/20 10:08:23;;;;;;;12.50;11.27;;;9.40;99.90;;;;;;2614247;54;20475;-70
2023/04/20 10:20:47;;;;;;;9.37;8.47;;;9.90;99.90;;;;;;2612333;54;20510;-70
2023/04/20 10:26:38;;;;;;;8.53;7.80;;;11.20;99.90;;;;;;2612049;54;20130;-69
2023/04/20 10:32:27;;;;;;;8.40;7.70;;;11.60;99.90;;;;;;2612245;54;20479;-68
2023/04/20 10:47:53;;;;;;;9.70;8.87;;;9.60;99.90;;;;;;2611725;54;20464;-69
2023/04/20 10:53:40;;;;;;;11.43;10.17;;;9.70;99.90;;;;;;2613221;39;20610;-68
2023/04/20 10:59:28;;;;;;;10.10;9.30;;;11.20;96.10;;;;;;2614496;54;20115;-70
2023/04/20 11:05:17;;;;;;;10.20;9.50;;;11.40;88.50;;;;;;2614249;54;20190;-70
2023/04/20 11:17:36;;;;;;;12.60;11.70;;;10.70;63.40;;;;;;2614122;54;20383;-70
2023/04/20 11:23:26;;;;;;;10.33;9.73;;;11.00;67.50;;;;;;2614314;54;20403;-70
2023/04/20 11:29:25;;;;;;;11.13;10.40;;;11.80;49.10;;;;;;2614142;54;20355;-69
2023/04/20 11:35:13;;;;;;;11.00;10.20;;;12.50;32.80;;;;;;2614164;54;20933;-69
2023/04/20 11:41:04;;;;;;;11.90;11.23;;;12.20;26.00;;;;;;2614223;54;20388;-69
2023/04/20 11:50:13;;;;;;;12.50;11.70;;;11.60;25.10;;;;;;2614300;46;20419;-70
2023/04/20 11:56:01;;;;;;;13.10;12.30;;;11.40;29.10;;;;;;2613951;54;20126;-70
2023/04/20 12:01:49;;;;;;;14.33;13.53;;;11.70;27.90;;;;;;2614444;54;20243;-69
2023/04/20 12:07:37;;;;;;;14.60;13.60;;;11.20;27.20;;;;;;2614075;54;20697;-69
2023/04/20 12:13:24;;;;;;;17.00;15.70;;;11.40;23.00;;;;;;2614766;54;20146;-69
2023/04/20 12:19:12;;;;;;;16.47;15.47;;;11.90;22.80;;;;;;2614253;54;20657;-69
2023/04/20 12:25:00;;;;;;;16.67;15.77;;;11.90;20.40;;;;;;2614111;54;20154;-70
2023/04/20 12:30:48;;;;;;;16.90;16.00;;;12.90;16.30;;;;;;2614545;39;20695;-69
2023/04/20 12:36:35;;;;;;;18.20;17.20;;;12.20;12.20;;;;;;2613808;54;20653;-69
2023/04/20 12:42:23;;;;;;;17.93;16.83;;;12.70;10.50;;;;;;2614044;54;20146;-69
2023/04/20 12:48:24;;;;;;;17.90;16.90;;;13.30;5.90;;;;;;2612478;47;20151;-69
2023/04/20 12:54:11;;;;;;;17.53;16.53;;;13.50;2.30;;;;;;2612790;54;20126;-70
2023/04/20 13:00:01;;;;;;;17.63;16.63;;;13.80;1.00;;;;;;2613521;31;20822;-69
2023/04/20 13:05:48;;;;;;;20.10;18.70;;;12.60;1.00;;;;;;2612416;54;20862;-69
2023/04/20 13:11:35;;;;;;;20.10;18.97;;;12.70;1.00;;;;;;2612961;39;20607;-70
2023/04/20 13:17:22;;;;;;;19.70;18.60;;;12.90;1.00;;;;;;2612255;54;20253;-70
2023/04/20 13:23:09;;;;;;;20.20;18.83;;;13.60;1.00;;;;;;2612097;54;20123;-69
2023/04/20 13:28:57;;;;;;;20.50;19.30;;;13.20;1.00;;;;;;2613994;54;20126;-70
2023/04/20 13:34:45;;;;;;;19.27;18.03;;;13.00;1.00;;;;;;2614565;54;20127;-69
2023/04/20 13:40:33;;;;;;;21.17;19.40;;;14.70;1.00;;;;;;2614582;39;20836;-70
2023/04/20 13:56:35;;;;;;;21.10;19.80;;;12.60;4.30;;;;;;2612324;54;20452;-68
2023/04/20 14:02:23;;;;;;;21.60;20.30;;;15.00;1.00;;;;;;2612421;54;20171;-69
2023/04/20 14:08:12;;;;;;;20.70;19.40;;;15.10;1.00;;;;;;2612241;54;20467;-69
2023/04/20 14:13:59;;;;;;;20.27;19.07;;;13.70;1.00;;;;;;2612526;54;20420;-69
2023/04/20 14:19:48;;;;;;;21.63;20.03;;;13.80;1.00;;;;;;2612299;54;20123;-69
2023/04/20 14:25:35;;;;;;;22.07;20.67;;;14.40;1.00;;;;;;2612573;54;20363;-70
2023/04/20 14:31:23;;;;;;;22.70;21.07;;;15.10;1.00;;;;;;2613574;54;20250;-69
2023/04/20 14:37:10;;;;;;;21.80;20.40;;;13.40;1.00;;;;;;2614485;54;20170;-69
2023/04/20 14:42:58;;;;;;;22.30;20.47;;;14.10;1.00;;;;;;2614481;54;20190;-69
2023/04/20 14:49:02;;;;;;;21.83;20.43;;;14.10;1.00;;;;;;2612755;54;20228;-69
2023/04/20 14:54:49;;;;;;;22.50;21.10;;;14.60;1.00;;;;;;2613130;54;20158;-69
2023/04/20 15:00:36;;;;;;;20.97;19.53;;;14.60;1.00;;;;;;2613045;54;20138;-69
2023/04/20 15:06:24;;;;;;;21.60;20.10;;;15.00;1.00;;;;;;2612602;54;20371;-68
2023/04/20 15:12:11;;;;;;;18.53;17.33;;;13.70;1.00;;;;;;2612974;54;20433;-70
2023/04/20 15:17:58;;;;;;;19.40;18.10;;;13.70;1.00;;;;;;2612750;54;20633;-69
2023/04/20 15:23:45;;;;;;;21.33;20.03;;;14.10;1.00;;;;;;2613395;54;20153;-69
2023/04/20 15:29:33;;;;;;;19.80;18.60;;;14.20;1.00;;;;;;2614127;54;20157;-69
2023/04/20 15:35:21;;;;;;;18.27;17.17;;;14.00;1.00;;;;;;2614200;54;20166;-69
2023/04/20 15:41:08;;;;;;;17.63;16.53;;;13.60;1.00;;;;;;2614741;39;20539;-70
2023/04/20 15:50:19;;;;;;;17.50;16.30;;;13.60;1.00;;;;;;2614187;39;20683;-70
2023/04/20 15:56:06;;;;;;;18.47;17.27;;;13.20;1.00;;;;;;2614409;54;20918;-69
2023/04/20 16:01:54;;;;;;;17.60;16.60;;;13.10;1.00;;;;;;2614732;54;20199;-70
2023/04/20 16:07:42;;;;;;;18.40;17.30;;;13.40;1.00;;;;;;2614680;39;20935;-70
2023/04/20 16:13:30;;;;;;;18.73;17.63;;;13.50;1.00;;;;;;2614171;54;20138;-69
2023/04/20 16:19:18;;;;;;;20.40;18.67;;;13.00;1.00;;;;;;2613926;54;20275;-69
2023/04/20 16:25:06;;;;;;;21.17;19.97;;;13.60;1.00;;;;;;2613897;54;20133;-70
2023/04/20 16:30:54;;;;;;;18.93;17.53;;;14.20;1.00;;;;;;2614609;46;20659;-70
2023/04/20 16:36:43;;;;;;;18.33;17.17;;;14.10;1.00;;;;;;2613678;54;20130;-69
2023/04/20 16:42:30;;;;;;;18.33;17.33;;;13.40;1.00;;;;;;2614055;54;20395;-70
2023/04/20 16:45:41;;;;;;;18.73;17.73;;;13.10;1.00;;;;;;2614153;54;20424;-68
2023/04/20 16:48:06;;;;;;;18.70;17.70;;;13.50;1.00;;;;;;2613084;47;20162;-69
2023/04/20 16:53:55;;;;;;;19.50;18.40;;;13.10;1.00;;;;;;2614912;39;20683;-70
2023/04/20 16:59:43;;;;;;;19.27;18.17;;;12.00;1.00;;;;;;2613899;54;20453;-70
2023/04/20 17:05:31;;;;;;;18.10;17.00;;;11.70;1.00;;;;;;2612988;54;20127;-70
2023/04/20 17:11:19;;;;;;;18.90;17.80;;;11.50;1.40;;;;;;2614348;54;20533;-70
2023/04/20 17:17:06;;;;;;;18.53;17.33;;;11.40;6.50;;;;;;2613840;54;20231;-69
2023/04/20 17:22:54;;;;;;;17.27;16.27;;;11.00;12.90;;;;;;2613061;54;20142;-70
2023/04/20 17:25:58;;;;;;;18.57;17.40;;;10.70;12.80;;;;;;2612459;46;20410;-69
2023/04/20 17:28:23;;;;;;;16.50;15.53;;;10.60;15.80;;;;;;2613812;54;20166;-70
2023/04/20 17:34:11;;;;;;;19.40;17.73;;;10.20;24.40;;;;;;2614060;54;20123;-70
2023/04/20 17:39:58;;;;;;;16.87;15.80;;;10.00;30.70;;;;;;2613830;54;20271;-69
2023/04/20 17:52:30;;;;;;;16.30;15.13;;;10.00;67.10;;;;;;2613725;54;20379;-70
2023/04/20 17:58:18;;;;;;;15.37;14.37;;;9.60;93.10;;;;;;2613793;39;20611;-70
2023/04/20 18:04:07;;;;;;;17.07;15.67;;;9.50;99.20;;;;;;2613626;54;20210;-70
2023/04/20 18:09:55;;;;;;;17.73;16.23;;;9.40;99.90;;;;;;2613797;54;20390;-70
2023/04/20 18:15:42;;;;;;;16.00;14.80;;;9.30;99.90;;;;;;2613383;54;20130;-69
2023/04/20 18:21:31;;;;;;;15.17;13.43;;;9.20;99.90;;;;;;2613605;54;20162;-70
2023/04/20 18:27:19;;;;;;;13.20;10.60;;;9.20;99.90;;;;;;2613595;39;20700;-70
2023/04/20 18:33:06;;;;;;;13.73;12.43;;;9.00;99.90;;;;;;2613452;54;20379;-68
2023/04/20 18:38:56;;;;;;;13.97;12.77;;;8.70;99.90;;;;;;2613586;54;20166;-69
2023/04/20 18:44:43;;;;;;;14.97;13.57;;;8.60;99.90;;;;;;2613882;54;20945;-69
2023/04/20 18:50:31;;;;;;;14.07;12.60;;;8.50;99.90;;;;;;2613446;54;20181;-70
2023/04/20 18:56:19;;;;;;;21.00;16.50;;;8.30;99.90;;;;;;2613600;54;20242;-70
2023/04/20 19:02:08;;;;;;;23.37;17.53;;;8.30;99.90;;;;;;2613717;54;20138;-69
2023/04/20 19:07:56;;;;;;;23.70;18.50;;;8.30;99.90;;;;;;2612622;54;20383;-69
2023/04/20 19:13:44;;;;;;;20.77;16.77;;;8.30;99.90;;;;;;2613340;54;20139;-70
2023/04/20 19:19:32;;;;;;;16.63;15.13;;;8.30;99.90;;;;;;2613971;54;20158;-69
2023/04/20 19:25:19;;;;;;;17.53;15.90;;;8.30;99.90;;;;;;2614026;54;20406;-70
2023/04/20 19:31:09;;;;;;;16.83;15.10;;;8.40;99.90;;;;;;2613888;54;20138;-70
2023/04/20 19:36:57;;;;;;;17.30;15.47;;;8.40;99.90;;;;;;2614225;54;20402;-70
2023/04/20 19:42:47;;;;;;;17.60;15.80;;;8.50;99.90;;;;;;2613924;39;20536;-70
2023/04/20 19:48:35;;;;;;;25.83;16.07;;;8.50;99.90;;;;;;2614316;54;20395;-70
2023/04/20 19:54:22;;;;;;;18.83;16.70;;;8.60;99.90;;;;;;2613684;54;20936;-70
2023/04/20 19:57:41;;;;;;;18.60;16.70;;;8.60;99.90;;;;;;2613761;54;20390;-70
2023/04/20 20:03:29;;;;;;;17.37;15.70;;;8.60;99.90;;;;;;2614495;54;20427;-71
2023/04/20 20:09:17;;;;;;;18.83;16.93;;;8.70;99.90;;;;;;2613691;54;20490;-69
2023/04/20 20:15:05;;;;;;;20.37;18.07;;;8.60;99.90;;;;;;2613782;54;20419;-70
2023/04/20 20:20:53;;;;;;;21.77;19.43;;;8.50;99.90;;;;;;2614337;54;20394;-69
2023/04/20 20:26:41;;;;;;;24.20;21.70;;;8.50;99.90;;;;;;2614062;54;20130;-70
2023/04/20 20:32:30;;;;;;;22.80;20.37;;;8.50;99.90;;;;;;2614250;54;20146;-69
2023/04/20 20:38:19;;;;;;;27.00;24.10;;;8.50;99.90;;;;;;2614027;54;20495;-69
2023/04/20 20:44:10;;;;;;;27.60;22.27;;;8.50;99.90;;;;;;2613849;54;20406;-69
2023/04/20 20:49:58;;;;;;;25.50;22.17;;;8.40;99.90;;;;;;2614333;54;20383;-70
2023/04/20 20:53:11;;;;;;;30.10;21.90;;;8.40;99.90;;;;;;2613638;47;20946;-68
2023/04/20 20:55:37;;;;;;;32.53;21.63;;;8.30;99.90;;;;;;2613670;46;20186;-69
2023/04/20 21:01:24;;;;;;;26.30;21.17;;;8.30;99.90;;;;;;2614531;54;20135;-70
2023/04/20 21:07:12;;;;;;;26.27;22.57;;;8.30;99.90;;;;;;2614144;54;20170;-69
2023/04/20 21:13:00;;;;;;;24.40;20.57;;;8.30;99.90;;;;;;2614085;54;20223;-70
2023/04/20 21:18:48;;;;;;;24.60;21.57;;;8.30;99.90;;;;;;2613777;54;20448;-69
2023/04/20 21:24:35;;;;;;;23.13;20.63;;;8.30;99.90;;;;;;2613989;54;21209;-69
2023/04/20 21:30:23;;;;;;;23.13;20.20;;;8.30;99.90;;;;;;2614435;39;20805;-69
2023/04/20 21:36:11;;;;;;;26.93;21.73;;;8.40;99.90;;;;;;2613691;54;20131;-70
2023/04/20 21:42:00;;;;;;;22.30;19.70;;;8.30;99.90;;;;;;2614472;54;20122;-69
2023/04/20 21:47:47;;;;;;;24.40;20.70;;;8.30;99.90;;;;;;2614032;54;20415;-70
2023/04/20 21:57:44;;;;;;;27.13;19.80;;;8.30;99.90;;;;;;2614229;54;20386;-70
2023/04/20 22:03:34;;;;;;;23.53;19.07;;;8.20;99.90;;;;;;2614002;54;21048;-69
2023/04/20 22:09:22;;;;;;;23.80;19.47;;;8.20;99.90;;;;;;2613865;54;20941;-69
2023/04/20 22:15:12;;;;;;;25.43;20.17;;;8.10;99.90;;;;;;2613901;54;20755;-69
2023/04/20 22:21:00;;;;;;;24.27;19.47;;;8.10;99.90;;;;;;2614783;54;20380;-69
2023/04/20 22:26:48;;;;;;;23.10;20.60;;;8.10;99.90;;;;;;2613703;54;20127;-70
2023/04/20 22:32:37;;;;;;;26.70;20.30;;;8.20;99.90;;;;;;2613849;54;20263;-69
2023/04/20 22:38:24;;;;;;;22.80;19.07;;;8.20;99.90;;;;;;2613794;54;20374;-69
2023/04/20 22:44:12;;;;;;;25.23;19.97;;;8.20;99.90;;;;;;2613569;54;20665;-70
2023/04/20 22:50:00;;;;;;;26.37;20.47;;;8.10;99.90;;;;;;2613467;46;20142;-69
2023/04/20 22:53:12;;;;;;;27.93;20.33;;;8.10;99.90;;;;;;2614643;31;20792;-69
2023/04/20 22:55:38;;;;;;;22.60;18.90;;;8.10;99.90;;;;;;2614306;54;20768;-70
2023/04/20 23:01:26;;;;;;;25.90;20.40;;;8.10;99.90;;;;;;2614597;54;20406;-70
2023/04/20 23:07:14;;;;;;;26.90;22.47;;;8.10;99.90;;;;;;2614248;54;20395;-70
2023/04/20 23:13:03;;;;;;;32.33;20.70;;;8.10;99.90;;;;;;2614495;54;20294;-70
2023/04/20 23:18:51;;;;;;;24.93;20.17;;;8.10;99.90;;;;;;2614143;54;21325;-68
2023/04/20 23:21:54;;;;;;;31.40;23.17;;;8.10;99.90;;;;;;2614594;54;20423;-68
2023/04/20 23:24:20;;;;;;;28.70;21.00;;;8.10;99.90;;;;;;2613992;47;20159;-70
2023/04/20 23:30:08;;;;;;;30.67;21.50;;;8.10;99.90;;;;;;2614931;54;20129;-69
2023/04/20 23:35:59;;;;;;;30.40;21.87;;;8.00;99.90;;;;;;2614256;54;20363;-69
2023/04/20 23:41:47;;;;;;;33.57;23.40;;;7.90;99.90;;;;;;2614428;54;20960;-69
2023/04/20 23:47:34;;;;;;;31.33;23.67;;;7.80;99.90;;;;;;2614182;54;20134;-68
2023/04/20 23:57:43;;;;;;;35.37;24.87;;;7.80;99.90;;;;;;2614160;54;20371;-70
